<?xml version="1.0" encoding="UTF-8" standalone="no" ?>
<gpx xmlns="http://www.topografix.com/GPX/1/1" xmlns:xsi="http://www.w3.org/2001/XMLSchema-instance" xsi:schemaLocation="http://www.topografix.com/GPX/1/1 http://www.topografix.com/GPX/1/1/gpx.xsd" version="1.1" creator="VisuGPX - https://www.visugpx.com">
  <metadata>
    <name>13251509-Bois Barbu</name>
  </metadata>
  <trk>
    <name><![CDATA[13251509-Bois Barbu]]></name>
    <trkseg>
      <trkpt lat="45.06061" lon="5.52353">
        <ele>1140</ele>
        <time>2021-06-29T07:02:55Z</time>
      </trkpt>
      <trkpt lat="45.06061" lon="5.52356">
        <ele>1140</ele>
        <time>2021-06-29T07:02:58Z</time>
      </trkpt>
      <trkpt lat="45.06046" lon="5.52383">
        <ele>1142</ele>
        <time>2021-06-29T07:03:30Z</time>
      </trkpt>
      <trkpt lat="45.06043" lon="5.52392">
        <ele>1143</ele>
        <time>2021-06-29T07:03:40Z</time>
      </trkpt>
      <trkpt lat="45.06043" lon="5.5241">
        <ele>1144</ele>
        <time>2021-06-29T07:03:57Z</time>
      </trkpt>
      <trkpt lat="45.06046" lon="5.52428">
        <ele>1146</ele>
        <time>2021-06-29T07:04:14Z</time>
      </trkpt>
      <trkpt lat="45.0605" lon="5.52443">
        <ele>1147</ele>
        <time>2021-06-29T07:04:29Z</time>
      </trkpt>
      <trkpt lat="45.06059" lon="5.52457">
        <ele>1148</ele>
        <time>2021-06-29T07:04:47Z</time>
      </trkpt>
      <trkpt lat="45.06096" lon="5.52477">
        <ele>1148</ele>
        <time>2021-06-29T07:05:40Z</time>
      </trkpt>
      <trkpt lat="45.06113" lon="5.52477">
        <ele>1148</ele>
        <time>2021-06-29T07:06:02Z</time>
      </trkpt>
      <trkpt lat="45.06145" lon="5.52474">
        <ele>1147</ele>
        <time>2021-06-29T07:06:45Z</time>
      </trkpt>
      <trkpt lat="45.06159" lon="5.52477">
        <ele>1147</ele>
        <time>2021-06-29T07:07:04Z</time>
      </trkpt>
      <trkpt lat="45.0617" lon="5.52491">
        <ele>1149</ele>
        <time>2021-06-29T07:07:24Z</time>
      </trkpt>
      <trkpt lat="45.06178" lon="5.52508">
        <ele>1151</ele>
        <time>2021-06-29T07:07:43Z</time>
      </trkpt>
      <trkpt lat="45.06195" lon="5.52583">
        <ele>1163</ele>
        <time>2021-06-29T07:08:57Z</time>
      </trkpt>
      <trkpt lat="45.06209" lon="5.52598">
        <ele>1164</ele>
        <time>2021-06-29T07:09:21Z</time>
      </trkpt>
      <trkpt lat="45.06219" lon="5.52606">
        <ele>1165</ele>
        <time>2021-06-29T07:09:36Z</time>
      </trkpt>
      <trkpt lat="45.06235" lon="5.52612">
        <ele>1165</ele>
        <time>2021-06-29T07:09:58Z</time>
      </trkpt>
      <trkpt lat="45.06303" lon="5.52631">
        <ele>1168</ele>
        <time>2021-06-29T07:11:31Z</time>
      </trkpt>
      <trkpt lat="45.06334" lon="5.52637">
        <ele>1169</ele>
        <time>2021-06-29T07:12:13Z</time>
      </trkpt>
      <trkpt lat="45.06332" lon="5.52675">
        <ele>1175</ele>
        <time>2021-06-29T07:12:48Z</time>
      </trkpt>
      <trkpt lat="45.06313" lon="5.52687">
        <ele>1176</ele>
        <time>2021-06-29T07:13:16Z</time>
      </trkpt>
      <trkpt lat="45.06293" lon="5.5271">
        <ele>1177</ele>
        <time>2021-06-29T07:13:51Z</time>
      </trkpt>
      <trkpt lat="45.0628" lon="5.52729">
        <ele>1178</ele>
        <time>2021-06-29T07:14:16Z</time>
      </trkpt>
      <trkpt lat="45.06268" lon="5.52755">
        <ele>1180</ele>
        <time>2021-06-29T07:14:45Z</time>
      </trkpt>
      <trkpt lat="45.06241" lon="5.52833">
        <ele>1186</ele>
        <time>2021-06-29T07:16:07Z</time>
      </trkpt>
      <trkpt lat="45.06223" lon="5.52846">
        <ele>1188</ele>
        <time>2021-06-29T07:16:34Z</time>
      </trkpt>
      <trkpt lat="45.06203" lon="5.52864">
        <ele>1190</ele>
        <time>2021-06-29T07:17:05Z</time>
      </trkpt>
      <trkpt lat="45.06188" lon="5.52871">
        <ele>1192</ele>
        <time>2021-06-29T07:17:26Z</time>
      </trkpt>
      <trkpt lat="45.06176" lon="5.52873">
        <ele>1193</ele>
        <time>2021-06-29T07:17:42Z</time>
      </trkpt>
      <trkpt lat="45.06166" lon="5.52871">
        <ele>1193</ele>
        <time>2021-06-29T07:17:56Z</time>
      </trkpt>
      <trkpt lat="45.06144" lon="5.52859">
        <ele>1195</ele>
        <time>2021-06-29T07:18:27Z</time>
      </trkpt>
      <trkpt lat="45.06074" lon="5.52814">
        <ele>1201</ele>
        <time>2021-06-29T07:20:10Z</time>
      </trkpt>
      <trkpt lat="45.06047" lon="5.52799">
        <ele>1200</ele>
        <time>2021-06-29T07:20:49Z</time>
      </trkpt>
      <trkpt lat="45.05987" lon="5.52786">
        <ele>1199</ele>
        <time>2021-06-29T07:22:10Z</time>
      </trkpt>
      <trkpt lat="45.05969" lon="5.52779">
        <ele>1199</ele>
        <time>2021-06-29T07:22:35Z</time>
      </trkpt>
      <trkpt lat="45.05958" lon="5.52772">
        <ele>1198</ele>
        <time>2021-06-29T07:22:51Z</time>
      </trkpt>
      <trkpt lat="45.05948" lon="5.52762">
        <ele>1197</ele>
        <time>2021-06-29T07:23:07Z</time>
      </trkpt>
      <trkpt lat="45.05928" lon="5.52738">
        <ele>1195</ele>
        <time>2021-06-29T07:23:42Z</time>
      </trkpt>
      <trkpt lat="45.05915" lon="5.52728">
        <ele>1194</ele>
        <time>2021-06-29T07:24:02Z</time>
      </trkpt>
      <trkpt lat="45.05897" lon="5.52722">
        <ele>1195</ele>
        <time>2021-06-29T07:24:26Z</time>
      </trkpt>
      <trkpt lat="45.05867" lon="5.52717">
        <ele>1197</ele>
        <time>2021-06-29T07:25:07Z</time>
      </trkpt>
      <trkpt lat="45.05851" lon="5.52718">
        <ele>1198</ele>
        <time>2021-06-29T07:25:28Z</time>
      </trkpt>
      <trkpt lat="45.05792" lon="5.52714">
        <ele>1203</ele>
        <time>2021-06-29T07:26:47Z</time>
      </trkpt>
      <trkpt lat="45.05776" lon="5.5271">
        <ele>1204</ele>
        <time>2021-06-29T07:27:09Z</time>
      </trkpt>
      <trkpt lat="45.05763" lon="5.52704">
        <ele>1204</ele>
        <time>2021-06-29T07:27:27Z</time>
      </trkpt>
      <trkpt lat="45.0574" lon="5.52687">
        <ele>1205</ele>
        <time>2021-06-29T07:28:01Z</time>
      </trkpt>
      <trkpt lat="45.05721" lon="5.52682">
        <ele>1206</ele>
        <time>2021-06-29T07:28:27Z</time>
      </trkpt>
      <trkpt lat="45.05678" lon="5.52689">
        <ele>1210</ele>
        <time>2021-06-29T07:29:25Z</time>
      </trkpt>
      <trkpt lat="45.05646" lon="5.52698">
        <ele>1213</ele>
        <time>2021-06-29T07:30:09Z</time>
      </trkpt>
      <trkpt lat="45.05608" lon="5.52715">
        <ele>1214</ele>
        <time>2021-06-29T07:31:02Z</time>
      </trkpt>
      <trkpt lat="45.05591" lon="5.52718">
        <ele>1214</ele>
        <time>2021-06-29T07:31:25Z</time>
      </trkpt>
      <trkpt lat="45.05569" lon="5.52715">
        <ele>1216</ele>
        <time>2021-06-29T07:31:54Z</time>
      </trkpt>
      <trkpt lat="45.0555" lon="5.52702">
        <ele>1217</ele>
        <time>2021-06-29T07:32:22Z</time>
      </trkpt>
      <trkpt lat="45.05529" lon="5.52671">
        <ele>1218</ele>
        <time>2021-06-29T07:33:03Z</time>
      </trkpt>
      <trkpt lat="45.0552" lon="5.52663">
        <ele>1218</ele>
        <time>2021-06-29T07:33:17Z</time>
      </trkpt>
      <trkpt lat="45.05484" lon="5.52648">
        <ele>1221</ele>
        <time>2021-06-29T07:34:07Z</time>
      </trkpt>
      <trkpt lat="45.05447" lon="5.52649">
        <ele>1226</ele>
        <time>2021-06-29T07:34:56Z</time>
      </trkpt>
      <trkpt lat="45.05418" lon="5.52645">
        <ele>1230</ele>
        <time>2021-06-29T07:35:35Z</time>
      </trkpt>
      <trkpt lat="45.05381" lon="5.5262">
        <ele>1230</ele>
        <time>2021-06-29T07:36:30Z</time>
      </trkpt>
      <trkpt lat="45.05338" lon="5.52584">
        <ele>1231</ele>
        <time>2021-06-29T07:37:37Z</time>
      </trkpt>
      <trkpt lat="45.05314" lon="5.52561">
        <ele>1230</ele>
        <time>2021-06-29T07:38:15Z</time>
      </trkpt>
      <trkpt lat="45.05255" lon="5.52494">
        <ele>1235</ele>
        <time>2021-06-29T07:39:56Z</time>
      </trkpt>
      <trkpt lat="45.05199" lon="5.52426">
        <ele>1242</ele>
        <time>2021-06-29T07:41:35Z</time>
      </trkpt>
      <trkpt lat="45.05178" lon="5.52411">
        <ele>1244</ele>
        <time>2021-06-29T07:42:06Z</time>
      </trkpt>
      <trkpt lat="45.05138" lon="5.52391">
        <ele>1246</ele>
        <time>2021-06-29T07:43:03Z</time>
      </trkpt>
      <trkpt lat="45.05095" lon="5.52383">
        <ele>1248</ele>
        <time>2021-06-29T07:44:01Z</time>
      </trkpt>
      <trkpt lat="45.05032" lon="5.52384">
        <ele>1248</ele>
        <time>2021-06-29T07:45:25Z</time>
      </trkpt>
      <trkpt lat="45.05004" lon="5.5238">
        <ele>1249</ele>
        <time>2021-06-29T07:46:02Z</time>
      </trkpt>
      <trkpt lat="45.04983" lon="5.52372">
        <ele>1249</ele>
        <time>2021-06-29T07:46:31Z</time>
      </trkpt>
      <trkpt lat="45.04931" lon="5.52313">
        <ele>1250</ele>
        <time>2021-06-29T07:48:00Z</time>
      </trkpt>
      <trkpt lat="45.04911" lon="5.52295">
        <ele>1250</ele>
        <time>2021-06-29T07:48:32Z</time>
      </trkpt>
      <trkpt lat="45.04879" lon="5.52287">
        <ele>1249</ele>
        <time>2021-06-29T07:49:15Z</time>
      </trkpt>
      <trkpt lat="45.04872" lon="5.52281">
        <ele>1249</ele>
        <time>2021-06-29T07:49:26Z</time>
      </trkpt>
      <trkpt lat="45.04858" lon="5.52219">
        <ele>1251</ele>
        <time>2021-06-29T07:50:27Z</time>
      </trkpt>
      <trkpt lat="45.04827" lon="5.52122">
        <ele>1248</ele>
        <time>2021-06-29T07:52:08Z</time>
      </trkpt>
      <trkpt lat="45.04812" lon="5.52099">
        <ele>1246</ele>
        <time>2021-06-29T07:52:37Z</time>
      </trkpt>
      <trkpt lat="45.04795" lon="5.52097">
        <ele>1245</ele>
        <time>2021-06-29T07:53:00Z</time>
      </trkpt>
      <trkpt lat="45.04734" lon="5.52121">
        <ele>1246</ele>
        <time>2021-06-29T07:54:25Z</time>
      </trkpt>
      <trkpt lat="45.04697" lon="5.52143">
        <ele>1248</ele>
        <time>2021-06-29T07:55:18Z</time>
      </trkpt>
      <trkpt lat="45.04663" lon="5.52168">
        <ele>1248</ele>
        <time>2021-06-29T07:56:09Z</time>
      </trkpt>
      <trkpt lat="45.04632" lon="5.5218">
        <ele>1250</ele>
        <time>2021-06-29T07:56:52Z</time>
      </trkpt>
      <trkpt lat="45.04581" lon="5.52181">
        <ele>1253</ele>
        <time>2021-06-29T07:58:00Z</time>
      </trkpt>
      <trkpt lat="45.0461" lon="5.52053">
        <ele>1253</ele>
        <time>2021-06-29T08:00:07Z</time>
      </trkpt>
      <trkpt lat="45.04608" lon="5.52005">
        <ele>1252</ele>
        <time>2021-06-29T08:00:52Z</time>
      </trkpt>
      <trkpt lat="45.04572" lon="5.5195">
        <ele>1257</ele>
        <time>2021-06-29T08:02:03Z</time>
      </trkpt>
      <trkpt lat="45.04558" lon="5.51894">
        <ele>1258</ele>
        <time>2021-06-29T08:02:59Z</time>
      </trkpt>
      <trkpt lat="45.04531" lon="5.51795">
        <ele>1262</ele>
        <time>2021-06-29T08:04:39Z</time>
      </trkpt>
      <trkpt lat="45.04531" lon="5.51795">
        <ele>1262</ele>
        <time>2021-06-29T08:04:39Z</time>
      </trkpt>
      <trkpt lat="45.04486" lon="5.51728">
        <ele>1270</ele>
        <time>2021-06-29T08:06:06Z</time>
      </trkpt>
      <trkpt lat="45.04431" lon="5.51692">
        <ele>1278</ele>
        <time>2021-06-29T08:07:27Z</time>
      </trkpt>
      <trkpt lat="45.04405" lon="5.51652">
        <ele>1282</ele>
        <time>2021-06-29T08:08:18Z</time>
      </trkpt>
      <trkpt lat="45.04368" lon="5.51627">
        <ele>1288</ele>
        <time>2021-06-29T08:09:13Z</time>
      </trkpt>
      <trkpt lat="45.04347" lon="5.51593">
        <ele>1292</ele>
        <time>2021-06-29T08:09:56Z</time>
      </trkpt>
      <trkpt lat="45.04314" lon="5.51557">
        <ele>1293</ele>
        <time>2021-06-29T08:10:51Z</time>
      </trkpt>
      <trkpt lat="45.04283" lon="5.51508">
        <ele>1291</ele>
        <time>2021-06-29T08:11:53Z</time>
      </trkpt>
      <trkpt lat="45.04267" lon="5.51492">
        <ele>1291</ele>
        <time>2021-06-29T08:12:19Z</time>
      </trkpt>
      <trkpt lat="45.04245" lon="5.51474">
        <ele>1290</ele>
        <time>2021-06-29T08:12:53Z</time>
      </trkpt>
      <trkpt lat="45.04234" lon="5.51441">
        <ele>1288</ele>
        <time>2021-06-29T08:13:28Z</time>
      </trkpt>
      <trkpt lat="45.0421" lon="5.51456">
        <ele>1291</ele>
        <time>2021-06-29T08:14:03Z</time>
      </trkpt>
      <trkpt lat="45.0421" lon="5.51456">
        <ele>1291</ele>
        <time>2021-06-29T08:14:03Z</time>
      </trkpt>
      <trkpt lat="45.04187" lon="5.51458">
        <ele>1293</ele>
        <time>2021-06-29T08:14:34Z</time>
      </trkpt>
      <trkpt lat="45.04187" lon="5.51458">
        <ele>1293</ele>
        <time>2021-06-29T08:14:34Z</time>
      </trkpt>
      <trkpt lat="45.04151" lon="5.51474">
        <ele>1295</ele>
        <time>2021-06-29T08:15:24Z</time>
      </trkpt>
      <trkpt lat="45.04109" lon="5.51477">
        <ele>1298</ele>
        <time>2021-06-29T08:16:20Z</time>
      </trkpt>
      <trkpt lat="45.04087" lon="5.51479">
        <ele>1300</ele>
        <time>2021-06-29T08:16:49Z</time>
      </trkpt>
      <trkpt lat="45.04028" lon="5.51528">
        <ele>1307</ele>
        <time>2021-06-29T08:18:21Z</time>
      </trkpt>
      <trkpt lat="45.03985" lon="5.51506">
        <ele>1309</ele>
        <time>2021-06-29T08:19:22Z</time>
      </trkpt>
      <trkpt lat="45.03985" lon="5.51506">
        <ele>1309</ele>
        <time>2021-06-29T08:19:22Z</time>
      </trkpt>
      <trkpt lat="45.03955" lon="5.51512">
        <ele>1309</ele>
        <time>2021-06-29T08:20:02Z</time>
      </trkpt>
      <trkpt lat="45.03921" lon="5.51515">
        <ele>1310</ele>
        <time>2021-06-29T08:20:48Z</time>
      </trkpt>
      <trkpt lat="45.0389" lon="5.51494">
        <ele>1309</ele>
        <time>2021-06-29T08:21:34Z</time>
      </trkpt>
      <trkpt lat="45.03893" lon="5.51376">
        <ele>1308</ele>
        <time>2021-06-29T08:23:25Z</time>
      </trkpt>
      <trkpt lat="45.03888" lon="5.51331">
        <ele>1308</ele>
        <time>2021-06-29T08:24:08Z</time>
      </trkpt>
      <trkpt lat="45.03915" lon="5.51263">
        <ele>1311</ele>
        <time>2021-06-29T08:25:21Z</time>
      </trkpt>
      <trkpt lat="45.03955" lon="5.51207">
        <ele>1309</ele>
        <time>2021-06-29T08:26:36Z</time>
      </trkpt>
      <trkpt lat="45.03985" lon="5.51183">
        <ele>1308</ele>
        <time>2021-06-29T08:27:22Z</time>
      </trkpt>
      <trkpt lat="45.04024" lon="5.5117">
        <ele>1306</ele>
        <time>2021-06-29T08:28:16Z</time>
      </trkpt>
      <trkpt lat="45.04043" lon="5.51147">
        <ele>1301</ele>
        <time>2021-06-29T08:28:49Z</time>
      </trkpt>
      <trkpt lat="45.04065" lon="5.51099">
        <ele>1291</ele>
        <time>2021-06-29T08:29:43Z</time>
      </trkpt>
      <trkpt lat="45.04009" lon="5.51073">
        <ele>1286</ele>
        <time>2021-06-29T08:31:02Z</time>
      </trkpt>
      <trkpt lat="45.03985" lon="5.51061">
        <ele>1283</ele>
        <time>2021-06-29T08:31:36Z</time>
      </trkpt>
      <trkpt lat="45.03969" lon="5.51037">
        <ele>1276</ele>
        <time>2021-06-29T08:32:07Z</time>
      </trkpt>
      <trkpt lat="45.03975" lon="5.5099">
        <ele>1266</ele>
        <time>2021-06-29T08:32:52Z</time>
      </trkpt>
      <trkpt lat="45.03946" lon="5.50999">
        <ele>1267</ele>
        <time>2021-06-29T08:33:32Z</time>
      </trkpt>
      <trkpt lat="45.03897" lon="5.50965">
        <ele>1259</ele>
        <time>2021-06-29T08:34:44Z</time>
      </trkpt>
      <trkpt lat="45.03909" lon="5.50898">
        <ele>1251</ele>
        <time>2021-06-29T08:35:50Z</time>
      </trkpt>
      <trkpt lat="45.0389" lon="5.50895">
        <ele>1250</ele>
        <time>2021-06-29T08:36:15Z</time>
      </trkpt>
      <trkpt lat="45.03875" lon="5.50797">
        <ele>1247</ele>
        <time>2021-06-29T08:37:50Z</time>
      </trkpt>
      <trkpt lat="45.03855" lon="5.5077">
        <ele>1247</ele>
        <time>2021-06-29T08:38:27Z</time>
      </trkpt>
      <trkpt lat="45.03826" lon="5.50756">
        <ele>1247</ele>
        <time>2021-06-29T08:39:07Z</time>
      </trkpt>
      <trkpt lat="45.03821" lon="5.50756">
        <ele>1246</ele>
        <time>2021-06-29T08:39:14Z</time>
      </trkpt>
      <trkpt lat="45.03754" lon="5.5073">
        <ele>1247</ele>
        <time>2021-06-29T08:40:47Z</time>
      </trkpt>
      <trkpt lat="45.03706" lon="5.50703">
        <ele>1248</ele>
        <time>2021-06-29T08:41:56Z</time>
      </trkpt>
      <trkpt lat="45.03665" lon="5.507">
        <ele>1248</ele>
        <time>2021-06-29T08:42:51Z</time>
      </trkpt>
      <trkpt lat="45.03665" lon="5.50664">
        <ele>1250</ele>
        <time>2021-06-29T08:43:25Z</time>
      </trkpt>
      <trkpt lat="45.03687" lon="5.50599">
        <ele>1254</ele>
        <time>2021-06-29T08:44:33Z</time>
      </trkpt>
      <trkpt lat="45.03687" lon="5.50539">
        <ele>1258</ele>
        <time>2021-06-29T08:45:29Z</time>
      </trkpt>
      <trkpt lat="45.03734" lon="5.5049">
        <ele>1260</ele>
        <time>2021-06-29T08:46:47Z</time>
      </trkpt>
      <trkpt lat="45.03782" lon="5.50458">
        <ele>1264</ele>
        <time>2021-06-29T08:47:58Z</time>
      </trkpt>
      <trkpt lat="45.03805" lon="5.50418">
        <ele>1268</ele>
        <time>2021-06-29T08:48:46Z</time>
      </trkpt>
      <trkpt lat="45.03835" lon="5.5037">
        <ele>1270</ele>
        <time>2021-06-29T08:49:47Z</time>
      </trkpt>
      <trkpt lat="45.03875" lon="5.50287">
        <ele>1278</ele>
        <time>2021-06-29T08:51:22Z</time>
      </trkpt>
      <trkpt lat="45.03881" lon="5.50277">
        <ele>1279</ele>
        <time>2021-06-29T08:51:34Z</time>
      </trkpt>
      <trkpt lat="45.03889" lon="5.50249">
        <ele>1281</ele>
        <time>2021-06-29T08:52:02Z</time>
      </trkpt>
      <trkpt lat="45.03892" lon="5.50189">
        <ele>1285</ele>
        <time>2021-06-29T08:52:59Z</time>
      </trkpt>
      <trkpt lat="45.03906" lon="5.50157">
        <ele>1288</ele>
        <time>2021-06-29T08:53:35Z</time>
      </trkpt>
      <trkpt lat="45.03916" lon="5.50125">
        <ele>1289</ele>
        <time>2021-06-29T08:54:08Z</time>
      </trkpt>
      <trkpt lat="45.03932" lon="5.50109">
        <ele>1290</ele>
        <time>2021-06-29T08:54:34Z</time>
      </trkpt>
      <trkpt lat="45.03969" lon="5.50086">
        <ele>1292</ele>
        <time>2021-06-29T08:55:28Z</time>
      </trkpt>
      <trkpt lat="45.04106" lon="5.50078">
        <ele>1291</ele>
        <time>2021-06-29T08:58:31Z</time>
      </trkpt>
      <trkpt lat="45.04198" lon="5.5006">
        <ele>1291</ele>
        <time>2021-06-29T09:00:35Z</time>
      </trkpt>
      <trkpt lat="45.04277" lon="5.50027">
        <ele>1290</ele>
        <time>2021-06-29T09:02:25Z</time>
      </trkpt>
      <trkpt lat="45.04303" lon="5.49994">
        <ele>1288</ele>
        <time>2021-06-29T09:03:11Z</time>
      </trkpt>
      <trkpt lat="45.04294" lon="5.49983">
        <ele>1289</ele>
        <time>2021-06-29T09:03:27Z</time>
      </trkpt>
      <trkpt lat="45.04281" lon="5.49961">
        <ele>1289</ele>
        <time>2021-06-29T09:03:54Z</time>
      </trkpt>
      <trkpt lat="45.04281" lon="5.49945">
        <ele>1289</ele>
        <time>2021-06-29T09:04:09Z</time>
      </trkpt>
      <trkpt lat="45.04272" lon="5.4994">
        <ele>1289</ele>
        <time>2021-06-29T09:04:22Z</time>
      </trkpt>
      <trkpt lat="45.04267" lon="5.49932">
        <ele>1290</ele>
        <time>2021-06-29T09:04:32Z</time>
      </trkpt>
      <trkpt lat="45.04263" lon="5.49921">
        <ele>1290</ele>
        <time>2021-06-29T09:04:44Z</time>
      </trkpt>
      <trkpt lat="45.04266" lon="5.49907">
        <ele>1291</ele>
        <time>2021-06-29T09:04:58Z</time>
      </trkpt>
      <trkpt lat="45.04275" lon="5.49891">
        <ele>1292</ele>
        <time>2021-06-29T09:05:17Z</time>
      </trkpt>
      <trkpt lat="45.04285" lon="5.49865">
        <ele>1294</ele>
        <time>2021-06-29T09:05:45Z</time>
      </trkpt>
      <trkpt lat="45.04284" lon="5.49847">
        <ele>1295</ele>
        <time>2021-06-29T09:06:02Z</time>
      </trkpt>
      <trkpt lat="45.0427" lon="5.49808">
        <ele>1300</ele>
        <time>2021-06-29T09:06:43Z</time>
      </trkpt>
      <trkpt lat="45.04257" lon="5.49758">
        <ele>1308</ele>
        <time>2021-06-29T09:07:33Z</time>
      </trkpt>
      <trkpt lat="45.04251" lon="5.49748">
        <ele>1310</ele>
        <time>2021-06-29T09:07:46Z</time>
      </trkpt>
      <trkpt lat="45.04239" lon="5.49739">
        <ele>1312</ele>
        <time>2021-06-29T09:08:04Z</time>
      </trkpt>
      <trkpt lat="45.04171" lon="5.49701">
        <ele>1320</ele>
        <time>2021-06-29T09:09:41Z</time>
      </trkpt>
      <trkpt lat="45.04139" lon="5.4969">
        <ele>1324</ele>
        <time>2021-06-29T09:10:25Z</time>
      </trkpt>
      <trkpt lat="45.04048" lon="5.49663">
        <ele>1334</ele>
        <time>2021-06-29T09:12:29Z</time>
      </trkpt>
      <trkpt lat="45.04025" lon="5.49646">
        <ele>1339</ele>
        <time>2021-06-29T09:13:04Z</time>
      </trkpt>
      <trkpt lat="45.04007" lon="5.49639">
        <ele>1342</ele>
        <time>2021-06-29T09:13:29Z</time>
      </trkpt>
      <trkpt lat="45.03976" lon="5.49633">
        <ele>1343</ele>
        <time>2021-06-29T09:14:11Z</time>
      </trkpt>
      <trkpt lat="45.0393" lon="5.49617">
        <ele>1347</ele>
        <time>2021-06-29T09:15:14Z</time>
      </trkpt>
      <trkpt lat="45.03919" lon="5.4961">
        <ele>1348</ele>
        <time>2021-06-29T09:15:30Z</time>
      </trkpt>
      <trkpt lat="45.03915" lon="5.49602">
        <ele>1350</ele>
        <time>2021-06-29T09:15:39Z</time>
      </trkpt>
      <trkpt lat="45.0391" lon="5.49597">
        <ele>1351</ele>
        <time>2021-06-29T09:15:47Z</time>
      </trkpt>
      <trkpt lat="45.03915" lon="5.49602">
        <ele>1350</ele>
        <time>2021-06-29T09:15:56Z</time>
      </trkpt>
      <trkpt lat="45.03933" lon="5.49575">
        <ele>1358</ele>
        <time>2021-06-29T09:16:31Z</time>
      </trkpt>
      <trkpt lat="45.03953" lon="5.49561">
        <ele>1363</ele>
        <time>2021-06-29T09:17:00Z</time>
      </trkpt>
      <trkpt lat="45.03987" lon="5.49509">
        <ele>1379</ele>
        <time>2021-06-29T09:18:07Z</time>
      </trkpt>
      <trkpt lat="45.04038" lon="5.49494">
        <ele>1385</ele>
        <time>2021-06-29T09:19:17Z</time>
      </trkpt>
      <trkpt lat="45.04033" lon="5.4936">
        <ele>1408</ele>
        <time>2021-06-29T09:21:23Z</time>
      </trkpt>
      <trkpt lat="45.04188" lon="5.49346">
        <ele>1423</ele>
        <time>2021-06-29T09:24:50Z</time>
      </trkpt>
      <trkpt lat="45.04231" lon="5.49334">
        <ele>1428</ele>
        <time>2021-06-29T09:25:49Z</time>
      </trkpt>
      <trkpt lat="45.04262" lon="5.49337">
        <ele>1429</ele>
        <time>2021-06-29T09:26:30Z</time>
      </trkpt>
      <trkpt lat="45.04291" lon="5.49334">
        <ele>1432</ele>
        <time>2021-06-29T09:27:09Z</time>
      </trkpt>
      <trkpt lat="45.04339" lon="5.49314">
        <ele>1437</ele>
        <time>2021-06-29T09:28:16Z</time>
      </trkpt>
      <trkpt lat="45.04369" lon="5.4932">
        <ele>1439</ele>
        <time>2021-06-29T09:28:56Z</time>
      </trkpt>
      <trkpt lat="45.04398" lon="5.49301">
        <ele>1442</ele>
        <time>2021-06-29T09:29:39Z</time>
      </trkpt>
      <trkpt lat="45.04469" lon="5.49277">
        <ele>1449</ele>
        <time>2021-06-29T09:31:16Z</time>
      </trkpt>
      <trkpt lat="45.04502" lon="5.49254">
        <ele>1453</ele>
        <time>2021-06-29T09:32:06Z</time>
      </trkpt>
      <trkpt lat="45.04503" lon="5.4925">
        <ele>1453</ele>
        <time>2021-06-29T09:32:10Z</time>
      </trkpt>
      <trkpt lat="45.04502" lon="5.49254">
        <ele>1453</ele>
        <time>2021-06-29T09:32:14Z</time>
      </trkpt>
      <trkpt lat="45.04482" lon="5.49224">
        <ele>1455</ele>
        <time>2021-06-29T09:32:52Z</time>
      </trkpt>
      <trkpt lat="45.04533" lon="5.49191">
        <ele>1464</ele>
        <time>2021-06-29T09:34:07Z</time>
      </trkpt>
      <trkpt lat="45.04532" lon="5.49146">
        <ele>1468</ele>
        <time>2021-06-29T09:34:50Z</time>
      </trkpt>
      <trkpt lat="45.0454" lon="5.49104">
        <ele>1472</ele>
        <time>2021-06-29T09:35:31Z</time>
      </trkpt>
      <trkpt lat="45.0456" lon="5.49063">
        <ele>1478</ele>
        <time>2021-06-29T09:36:18Z</time>
      </trkpt>
      <trkpt lat="45.04588" lon="5.49046">
        <ele>1482</ele>
        <time>2021-06-29T09:36:58Z</time>
      </trkpt>
      <trkpt lat="45.04605" lon="5.49022">
        <ele>1486</ele>
        <time>2021-06-29T09:37:30Z</time>
      </trkpt>
      <trkpt lat="45.04609" lon="5.49004">
        <ele>1487</ele>
        <time>2021-06-29T09:37:48Z</time>
      </trkpt>
      <trkpt lat="45.04684" lon="5.4899">
        <ele>1498</ele>
        <time>2021-06-29T09:39:29Z</time>
      </trkpt>
      <trkpt lat="45.04697" lon="5.48983">
        <ele>1501</ele>
        <time>2021-06-29T09:39:48Z</time>
      </trkpt>
      <trkpt lat="45.04716" lon="5.48953">
        <ele>1506</ele>
        <time>2021-06-29T09:40:26Z</time>
      </trkpt>
      <trkpt lat="45.04811" lon="5.48855">
        <ele>1521</ele>
        <time>2021-06-29T09:43:03Z</time>
      </trkpt>
      <trkpt lat="45.04856" lon="5.48787">
        <ele>1524</ele>
        <time>2021-06-29T09:44:30Z</time>
      </trkpt>
      <trkpt lat="45.0487" lon="5.48733">
        <ele>1523</ele>
        <time>2021-06-29T09:45:25Z</time>
      </trkpt>
      <trkpt lat="45.04876" lon="5.48694">
        <ele>1520</ele>
        <time>2021-06-29T09:46:02Z</time>
      </trkpt>
      <trkpt lat="45.04881" lon="5.48683">
        <ele>1519</ele>
        <time>2021-06-29T09:46:15Z</time>
      </trkpt>
      <trkpt lat="45.04893" lon="5.48654">
        <ele>1516</ele>
        <time>2021-06-29T09:46:46Z</time>
      </trkpt>
      <trkpt lat="45.04906" lon="5.48624">
        <ele>1513</ele>
        <time>2021-06-29T09:47:19Z</time>
      </trkpt>
      <trkpt lat="45.04922" lon="5.48597">
        <ele>1511</ele>
        <time>2021-06-29T09:47:53Z</time>
      </trkpt>
      <trkpt lat="45.04924" lon="5.48556">
        <ele>1513</ele>
        <time>2021-06-29T09:48:31Z</time>
      </trkpt>
      <trkpt lat="45.04938" lon="5.48433">
        <ele>1528</ele>
        <time>2021-06-29T09:50:29Z</time>
      </trkpt>
      <trkpt lat="45.04935" lon="5.4841">
        <ele>1530</ele>
        <time>2021-06-29T09:50:51Z</time>
      </trkpt>
      <trkpt lat="45.04951" lon="5.48388">
        <ele>1532</ele>
        <time>2021-06-29T09:51:21Z</time>
      </trkpt>
      <trkpt lat="45.04955" lon="5.48351">
        <ele>1534</ele>
        <time>2021-06-29T09:51:56Z</time>
      </trkpt>
      <trkpt lat="45.04951" lon="5.48313">
        <ele>1536</ele>
        <time>2021-06-29T09:52:32Z</time>
      </trkpt>
      <trkpt lat="45.04949" lon="5.4829">
        <ele>1537</ele>
        <time>2021-06-29T09:52:54Z</time>
      </trkpt>
      <trkpt lat="45.04946" lon="5.48275">
        <ele>1538</ele>
        <time>2021-06-29T09:53:09Z</time>
      </trkpt>
      <trkpt lat="45.04938" lon="5.48264">
        <ele>1538</ele>
        <time>2021-06-29T09:53:24Z</time>
      </trkpt>
      <trkpt lat="45.04886" lon="5.48241">
        <ele>1540</ele>
        <time>2021-06-29T09:54:36Z</time>
      </trkpt>
      <trkpt lat="45.04864" lon="5.48228">
        <ele>1539</ele>
        <time>2021-06-29T09:55:08Z</time>
      </trkpt>
      <trkpt lat="45.04837" lon="5.48208">
        <ele>1537</ele>
        <time>2021-06-29T09:55:49Z</time>
      </trkpt>
      <trkpt lat="45.04797" lon="5.48189">
        <ele>1533</ele>
        <time>2021-06-29T09:56:45Z</time>
      </trkpt>
      <trkpt lat="45.04789" lon="5.48188">
        <ele>1533</ele>
        <time>2021-06-29T09:56:56Z</time>
      </trkpt>
      <trkpt lat="45.04781" lon="5.48197">
        <ele>1536</ele>
        <time>2021-06-29T09:57:09Z</time>
      </trkpt>
      <trkpt lat="45.04757" lon="5.48269">
        <ele>1548</ele>
        <time>2021-06-29T09:58:25Z</time>
      </trkpt>
      <trkpt lat="45.04735" lon="5.48286">
        <ele>1546</ele>
        <time>2021-06-29T09:58:58Z</time>
      </trkpt>
      <trkpt lat="45.04709" lon="5.48313">
        <ele>1542</ele>
        <time>2021-06-29T09:59:41Z</time>
      </trkpt>
      <trkpt lat="45.04684" lon="5.48317">
        <ele>1541</ele>
        <time>2021-06-29T10:00:15Z</time>
      </trkpt>
      <trkpt lat="45.04632" lon="5.4829">
        <ele>1540</ele>
        <time>2021-06-29T10:01:29Z</time>
      </trkpt>
      <trkpt lat="45.04602" lon="5.48299">
        <ele>1536</ele>
        <time>2021-06-29T10:02:09Z</time>
      </trkpt>
      <trkpt lat="45.04582" lon="5.48297">
        <ele>1533</ele>
        <time>2021-06-29T10:02:36Z</time>
      </trkpt>
      <trkpt lat="45.04563" lon="5.48317">
        <ele>1530</ele>
        <time>2021-06-29T10:03:08Z</time>
      </trkpt>
      <trkpt lat="45.04544" lon="5.48326">
        <ele>1527</ele>
        <time>2021-06-29T10:03:35Z</time>
      </trkpt>
      <trkpt lat="45.0451" lon="5.48309">
        <ele>1525</ele>
        <time>2021-06-29T10:04:23Z</time>
      </trkpt>
      <trkpt lat="45.04526" lon="5.48344">
        <ele>1525</ele>
        <time>2021-06-29T10:05:02Z</time>
      </trkpt>
      <trkpt lat="45.04556" lon="5.48377">
        <ele>1526</ele>
        <time>2021-06-29T10:05:53Z</time>
      </trkpt>
      <trkpt lat="45.04607" lon="5.48421">
        <ele>1526</ele>
        <time>2021-06-29T10:07:12Z</time>
      </trkpt>
      <trkpt lat="45.04677" lon="5.48471">
        <ele>1524</ele>
        <time>2021-06-29T10:08:57Z</time>
      </trkpt>
      <trkpt lat="45.04742" lon="5.48504">
        <ele>1519</ele>
        <time>2021-06-29T10:10:29Z</time>
      </trkpt>
      <trkpt lat="45.04807" lon="5.48551">
        <ele>1517</ele>
        <time>2021-06-29T10:12:07Z</time>
      </trkpt>
      <trkpt lat="45.0482" lon="5.48598">
        <ele>1516</ele>
        <time>2021-06-29T10:12:54Z</time>
      </trkpt>
      <trkpt lat="45.04836" lon="5.48645">
        <ele>1517</ele>
        <time>2021-06-29T10:13:43Z</time>
      </trkpt>
      <trkpt lat="45.04844" lon="5.48676">
        <ele>1518</ele>
        <time>2021-06-29T10:14:14Z</time>
      </trkpt>
      <trkpt lat="45.04873" lon="5.48726">
        <ele>1523</ele>
        <time>2021-06-29T10:15:15Z</time>
      </trkpt>
      <trkpt lat="45.04856" lon="5.48787">
        <ele>1524</ele>
        <time>2021-06-29T10:16:17Z</time>
      </trkpt>
      <trkpt lat="45.04811" lon="5.48855">
        <ele>1521</ele>
        <time>2021-06-29T10:17:45Z</time>
      </trkpt>
      <trkpt lat="45.04716" lon="5.48953">
        <ele>1506</ele>
        <time>2021-06-29T10:20:22Z</time>
      </trkpt>
      <trkpt lat="45.04697" lon="5.48983">
        <ele>1501</ele>
        <time>2021-06-29T10:21:00Z</time>
      </trkpt>
      <trkpt lat="45.04692" lon="5.48987">
        <ele>1500</ele>
        <time>2021-06-29T10:21:08Z</time>
      </trkpt>
      <trkpt lat="45.04606" lon="5.49005">
        <ele>1487</ele>
        <time>2021-06-29T10:23:04Z</time>
      </trkpt>
      <trkpt lat="45.04564" lon="5.49021">
        <ele>1482</ele>
        <time>2021-06-29T10:24:02Z</time>
      </trkpt>
      <trkpt lat="45.04521" lon="5.49051">
        <ele>1476</ele>
        <time>2021-06-29T10:25:06Z</time>
      </trkpt>
      <trkpt lat="45.04489" lon="5.49049">
        <ele>1474</ele>
        <time>2021-06-29T10:25:48Z</time>
      </trkpt>
      <trkpt lat="45.04446" lon="5.49049">
        <ele>1474</ele>
        <time>2021-06-29T10:26:46Z</time>
      </trkpt>
      <trkpt lat="45.04379" lon="5.49075">
        <ele>1469</ele>
        <time>2021-06-29T10:28:18Z</time>
      </trkpt>
      <trkpt lat="45.04356" lon="5.49087">
        <ele>1467</ele>
        <time>2021-06-29T10:28:51Z</time>
      </trkpt>
      <trkpt lat="45.04333" lon="5.49103">
        <ele>1464</ele>
        <time>2021-06-29T10:29:25Z</time>
      </trkpt>
      <trkpt lat="45.04323" lon="5.49127">
        <ele>1460</ele>
        <time>2021-06-29T10:29:52Z</time>
      </trkpt>
      <trkpt lat="45.04317" lon="5.49205">
        <ele>1448</ele>
        <time>2021-06-29T10:31:06Z</time>
      </trkpt>
      <trkpt lat="45.04327" lon="5.49319">
        <ele>1436</ele>
        <time>2021-06-29T10:32:54Z</time>
      </trkpt>
      <trkpt lat="45.04291" lon="5.49334">
        <ele>1432</ele>
        <time>2021-06-29T10:33:44Z</time>
      </trkpt>
      <trkpt lat="45.04262" lon="5.49337">
        <ele>1429</ele>
        <time>2021-06-29T10:34:23Z</time>
      </trkpt>
      <trkpt lat="45.04231" lon="5.49334">
        <ele>1428</ele>
        <time>2021-06-29T10:35:04Z</time>
      </trkpt>
      <trkpt lat="45.04188" lon="5.49346">
        <ele>1423</ele>
        <time>2021-06-29T10:36:03Z</time>
      </trkpt>
      <trkpt lat="45.04038" lon="5.49376">
        <ele>1406</ele>
        <time>2021-06-29T10:39:25Z</time>
      </trkpt>
      <trkpt lat="45.04039" lon="5.49479">
        <ele>1388</ele>
        <time>2021-06-29T10:41:02Z</time>
      </trkpt>
      <trkpt lat="45.04014" lon="5.49506">
        <ele>1381</ele>
        <time>2021-06-29T10:41:44Z</time>
      </trkpt>
      <trkpt lat="45.03981" lon="5.4951">
        <ele>1378</ele>
        <time>2021-06-29T10:42:28Z</time>
      </trkpt>
      <trkpt lat="45.03974" lon="5.49511">
        <ele>1377</ele>
        <time>2021-06-29T10:42:38Z</time>
      </trkpt>
      <trkpt lat="45.03955" lon="5.49557">
        <ele>1364</ele>
        <time>2021-06-29T10:43:28Z</time>
      </trkpt>
      <trkpt lat="45.03912" lon="5.49596">
        <ele>1352</ele>
        <time>2021-06-29T10:44:36Z</time>
      </trkpt>
      <trkpt lat="45.03915" lon="5.49602">
        <ele>1350</ele>
        <time>2021-06-29T10:44:43Z</time>
      </trkpt>
      <trkpt lat="45.03919" lon="5.4961">
        <ele>1348</ele>
        <time>2021-06-29T10:44:52Z</time>
      </trkpt>
      <trkpt lat="45.0393" lon="5.49617">
        <ele>1347</ele>
        <time>2021-06-29T10:45:08Z</time>
      </trkpt>
      <trkpt lat="45.03976" lon="5.49633">
        <ele>1343</ele>
        <time>2021-06-29T10:46:12Z</time>
      </trkpt>
      <trkpt lat="45.04007" lon="5.49639">
        <ele>1342</ele>
        <time>2021-06-29T10:46:53Z</time>
      </trkpt>
      <trkpt lat="45.04025" lon="5.49646">
        <ele>1339</ele>
        <time>2021-06-29T10:47:18Z</time>
      </trkpt>
      <trkpt lat="45.04048" lon="5.49663">
        <ele>1334</ele>
        <time>2021-06-29T10:47:53Z</time>
      </trkpt>
      <trkpt lat="45.04139" lon="5.4969">
        <ele>1324</ele>
        <time>2021-06-29T10:49:57Z</time>
      </trkpt>
      <trkpt lat="45.04171" lon="5.49701">
        <ele>1320</ele>
        <time>2021-06-29T10:50:41Z</time>
      </trkpt>
      <trkpt lat="45.04239" lon="5.49739">
        <ele>1312</ele>
        <time>2021-06-29T10:52:18Z</time>
      </trkpt>
      <trkpt lat="45.04251" lon="5.49748">
        <ele>1310</ele>
        <time>2021-06-29T10:52:37Z</time>
      </trkpt>
      <trkpt lat="45.04257" lon="5.49758">
        <ele>1308</ele>
        <time>2021-06-29T10:52:49Z</time>
      </trkpt>
      <trkpt lat="45.0427" lon="5.49808">
        <ele>1300</ele>
        <time>2021-06-29T10:53:39Z</time>
      </trkpt>
      <trkpt lat="45.04284" lon="5.49847">
        <ele>1295</ele>
        <time>2021-06-29T10:54:20Z</time>
      </trkpt>
      <trkpt lat="45.04285" lon="5.49865">
        <ele>1294</ele>
        <time>2021-06-29T10:54:37Z</time>
      </trkpt>
      <trkpt lat="45.04275" lon="5.49891">
        <ele>1292</ele>
        <time>2021-06-29T10:55:05Z</time>
      </trkpt>
      <trkpt lat="45.04266" lon="5.49907">
        <ele>1291</ele>
        <time>2021-06-29T10:55:25Z</time>
      </trkpt>
      <trkpt lat="45.04263" lon="5.49921">
        <ele>1290</ele>
        <time>2021-06-29T10:55:38Z</time>
      </trkpt>
      <trkpt lat="45.04267" lon="5.49932">
        <ele>1290</ele>
        <time>2021-06-29T10:55:50Z</time>
      </trkpt>
      <trkpt lat="45.04272" lon="5.4994">
        <ele>1289</ele>
        <time>2021-06-29T10:56:00Z</time>
      </trkpt>
      <trkpt lat="45.0427" lon="5.49942">
        <ele>1289</ele>
        <time>2021-06-29T10:56:03Z</time>
      </trkpt>
      <trkpt lat="45.04272" lon="5.4994">
        <ele>1289</ele>
        <time>2021-06-29T10:56:07Z</time>
      </trkpt>
      <trkpt lat="45.04281" lon="5.49945">
        <ele>1289</ele>
        <time>2021-06-29T10:56:20Z</time>
      </trkpt>
      <trkpt lat="45.04281" lon="5.49961">
        <ele>1289</ele>
        <time>2021-06-29T10:56:35Z</time>
      </trkpt>
      <trkpt lat="45.04294" lon="5.49983">
        <ele>1289</ele>
        <time>2021-06-29T10:57:02Z</time>
      </trkpt>
      <trkpt lat="45.04303" lon="5.49994">
        <ele>1288</ele>
        <time>2021-06-29T10:57:18Z</time>
      </trkpt>
      <trkpt lat="45.04277" lon="5.50027">
        <ele>1290</ele>
        <time>2021-06-29T10:58:04Z</time>
      </trkpt>
      <trkpt lat="45.04198" lon="5.5006">
        <ele>1291</ele>
        <time>2021-06-29T10:59:54Z</time>
      </trkpt>
      <trkpt lat="45.04106" lon="5.50078">
        <ele>1291</ele>
        <time>2021-06-29T11:01:58Z</time>
      </trkpt>
      <trkpt lat="45.0396" lon="5.50081">
        <ele>1291</ele>
        <time>2021-06-29T11:05:13Z</time>
      </trkpt>
      <trkpt lat="45.03916" lon="5.50125">
        <ele>1289</ele>
        <time>2021-06-29T11:06:25Z</time>
      </trkpt>
      <trkpt lat="45.03906" lon="5.50157">
        <ele>1288</ele>
        <time>2021-06-29T11:06:58Z</time>
      </trkpt>
      <trkpt lat="45.03892" lon="5.50189">
        <ele>1285</ele>
        <time>2021-06-29T11:07:33Z</time>
      </trkpt>
      <trkpt lat="45.03889" lon="5.50249">
        <ele>1281</ele>
        <time>2021-06-29T11:08:30Z</time>
      </trkpt>
      <trkpt lat="45.03881" lon="5.50277">
        <ele>1279</ele>
        <time>2021-06-29T11:08:58Z</time>
      </trkpt>
      <trkpt lat="45.03918" lon="5.50328">
        <ele>1278</ele>
        <time>2021-06-29T11:10:07Z</time>
      </trkpt>
      <trkpt lat="45.03934" lon="5.50362">
        <ele>1276</ele>
        <time>2021-06-29T11:10:46Z</time>
      </trkpt>
      <trkpt lat="45.03935" lon="5.50389">
        <ele>1273</ele>
        <time>2021-06-29T11:11:11Z</time>
      </trkpt>
      <trkpt lat="45.03918" lon="5.50468">
        <ele>1266</ele>
        <time>2021-06-29T11:12:29Z</time>
      </trkpt>
      <trkpt lat="45.03922" lon="5.5049">
        <ele>1264</ele>
        <time>2021-06-29T11:12:51Z</time>
      </trkpt>
      <trkpt lat="45.03932" lon="5.50506">
        <ele>1263</ele>
        <time>2021-06-29T11:13:11Z</time>
      </trkpt>
      <trkpt lat="45.03955" lon="5.50527">
        <ele>1262</ele>
        <time>2021-06-29T11:13:47Z</time>
      </trkpt>
      <trkpt lat="45.03967" lon="5.50561">
        <ele>1260</ele>
        <time>2021-06-29T11:14:23Z</time>
      </trkpt>
      <trkpt lat="45.03999" lon="5.50772">
        <ele>1249</ele>
        <time>2021-06-29T11:17:47Z</time>
      </trkpt>
      <trkpt lat="45.04011" lon="5.50866">
        <ele>1249</ele>
        <time>2021-06-29T11:19:17Z</time>
      </trkpt>
      <trkpt lat="45.04054" lon="5.50899">
        <ele>1248</ele>
        <time>2021-06-29T11:20:22Z</time>
      </trkpt>
      <trkpt lat="45.0408" lon="5.50936">
        <ele>1251</ele>
        <time>2021-06-29T11:21:11Z</time>
      </trkpt>
      <trkpt lat="45.04091" lon="5.50946">
        <ele>1253</ele>
        <time>2021-06-29T11:21:29Z</time>
      </trkpt>
      <trkpt lat="45.04104" lon="5.5095">
        <ele>1253</ele>
        <time>2021-06-29T11:21:46Z</time>
      </trkpt>
      <trkpt lat="45.04126" lon="5.50948">
        <ele>1252</ele>
        <time>2021-06-29T11:22:16Z</time>
      </trkpt>
      <trkpt lat="45.04163" lon="5.50963">
        <ele>1253</ele>
        <time>2021-06-29T11:23:07Z</time>
      </trkpt>
      <trkpt lat="45.04181" lon="5.50988">
        <ele>1256</ele>
        <time>2021-06-29T11:23:41Z</time>
      </trkpt>
      <trkpt lat="45.04216" lon="5.51013">
        <ele>1256</ele>
        <time>2021-06-29T11:24:33Z</time>
      </trkpt>
      <trkpt lat="45.04273" lon="5.51045">
        <ele>1257</ele>
        <time>2021-06-29T11:25:55Z</time>
      </trkpt>
      <trkpt lat="45.04359" lon="5.51057">
        <ele>1250</ele>
        <time>2021-06-29T11:27:50Z</time>
      </trkpt>
      <trkpt lat="45.04373" lon="5.51071">
        <ele>1251</ele>
        <time>2021-06-29T11:28:13Z</time>
      </trkpt>
      <trkpt lat="45.04387" lon="5.51081">
        <ele>1250</ele>
        <time>2021-06-29T11:28:34Z</time>
      </trkpt>
      <trkpt lat="45.04418" lon="5.51079">
        <ele>1245</ele>
        <time>2021-06-29T11:29:16Z</time>
      </trkpt>
      <trkpt lat="45.04449" lon="5.51085">
        <ele>1243</ele>
        <time>2021-06-29T11:29:57Z</time>
      </trkpt>
      <trkpt lat="45.04457" lon="5.51083">
        <ele>1242</ele>
        <time>2021-06-29T11:30:08Z</time>
      </trkpt>
      <trkpt lat="45.04488" lon="5.5106">
        <ele>1241</ele>
        <time>2021-06-29T11:30:55Z</time>
      </trkpt>
      <trkpt lat="45.04506" lon="5.51057">
        <ele>1239</ele>
        <time>2021-06-29T11:31:19Z</time>
      </trkpt>
      <trkpt lat="45.04528" lon="5.51059">
        <ele>1237</ele>
        <time>2021-06-29T11:31:48Z</time>
      </trkpt>
      <trkpt lat="45.04557" lon="5.51054">
        <ele>1233</ele>
        <time>2021-06-29T11:32:27Z</time>
      </trkpt>
      <trkpt lat="45.04568" lon="5.51055">
        <ele>1232</ele>
        <time>2021-06-29T11:32:42Z</time>
      </trkpt>
      <trkpt lat="45.04577" lon="5.5106">
        <ele>1230</ele>
        <time>2021-06-29T11:32:55Z</time>
      </trkpt>
      <trkpt lat="45.04597" lon="5.51098">
        <ele>1229</ele>
        <time>2021-06-29T11:33:40Z</time>
      </trkpt>
      <trkpt lat="45.04614" lon="5.51113">
        <ele>1229</ele>
        <time>2021-06-29T11:34:06Z</time>
      </trkpt>
      <trkpt lat="45.04628" lon="5.51131">
        <ele>1229</ele>
        <time>2021-06-29T11:34:32Z</time>
      </trkpt>
      <trkpt lat="45.04635" lon="5.51143">
        <ele>1230</ele>
        <time>2021-06-29T11:34:46Z</time>
      </trkpt>
      <trkpt lat="45.04644" lon="5.51153">
        <ele>1229</ele>
        <time>2021-06-29T11:35:02Z</time>
      </trkpt>
      <trkpt lat="45.04658" lon="5.5116">
        <ele>1228</ele>
        <time>2021-06-29T11:35:21Z</time>
      </trkpt>
      <trkpt lat="45.04693" lon="5.51158">
        <ele>1225</ele>
        <time>2021-06-29T11:36:08Z</time>
      </trkpt>
      <trkpt lat="45.04704" lon="5.5116">
        <ele>1224</ele>
        <time>2021-06-29T11:36:23Z</time>
      </trkpt>
      <trkpt lat="45.04719" lon="5.5117">
        <ele>1224</ele>
        <time>2021-06-29T11:36:45Z</time>
      </trkpt>
      <trkpt lat="45.0474" lon="5.51188">
        <ele>1225</ele>
        <time>2021-06-29T11:37:18Z</time>
      </trkpt>
      <trkpt lat="45.04749" lon="5.5119">
        <ele>1224</ele>
        <time>2021-06-29T11:37:30Z</time>
      </trkpt>
      <trkpt lat="45.04803" lon="5.5118">
        <ele>1219</ele>
        <time>2021-06-29T11:38:43Z</time>
      </trkpt>
      <trkpt lat="45.04819" lon="5.51171">
        <ele>1217</ele>
        <time>2021-06-29T11:39:06Z</time>
      </trkpt>
      <trkpt lat="45.04856" lon="5.51166">
        <ele>1214</ele>
        <time>2021-06-29T11:39:55Z</time>
      </trkpt>
      <trkpt lat="45.04879" lon="5.51154">
        <ele>1214</ele>
        <time>2021-06-29T11:40:28Z</time>
      </trkpt>
      <trkpt lat="45.04893" lon="5.51157">
        <ele>1213</ele>
        <time>2021-06-29T11:40:47Z</time>
      </trkpt>
      <trkpt lat="45.04904" lon="5.51164">
        <ele>1212</ele>
        <time>2021-06-29T11:41:03Z</time>
      </trkpt>
      <trkpt lat="45.04941" lon="5.51208">
        <ele>1215</ele>
        <time>2021-06-29T11:42:07Z</time>
      </trkpt>
      <trkpt lat="45.04958" lon="5.51217">
        <ele>1215</ele>
        <time>2021-06-29T11:42:32Z</time>
      </trkpt>
      <trkpt lat="45.04977" lon="5.51217">
        <ele>1213</ele>
        <time>2021-06-29T11:42:57Z</time>
      </trkpt>
      <trkpt lat="45.0501" lon="5.51206">
        <ele>1210</ele>
        <time>2021-06-29T11:43:42Z</time>
      </trkpt>
      <trkpt lat="45.05023" lon="5.51208">
        <ele>1209</ele>
        <time>2021-06-29T11:44:00Z</time>
      </trkpt>
      <trkpt lat="45.05029" lon="5.51214">
        <ele>1209</ele>
        <time>2021-06-29T11:44:10Z</time>
      </trkpt>
      <trkpt lat="45.05035" lon="5.51225">
        <ele>1209</ele>
        <time>2021-06-29T11:44:23Z</time>
      </trkpt>
      <trkpt lat="45.05036" lon="5.51239">
        <ele>1210</ele>
        <time>2021-06-29T11:44:36Z</time>
      </trkpt>
      <trkpt lat="45.05036" lon="5.51256">
        <ele>1210</ele>
        <time>2021-06-29T11:44:52Z</time>
      </trkpt>
      <trkpt lat="45.05029" lon="5.5132">
        <ele>1212</ele>
        <time>2021-06-29T11:45:53Z</time>
      </trkpt>
      <trkpt lat="45.05031" lon="5.51339">
        <ele>1212</ele>
        <time>2021-06-29T11:46:11Z</time>
      </trkpt>
      <trkpt lat="45.05039" lon="5.51356">
        <ele>1211</ele>
        <time>2021-06-29T11:46:30Z</time>
      </trkpt>
      <trkpt lat="45.05053" lon="5.5138">
        <ele>1210</ele>
        <time>2021-06-29T11:47:00Z</time>
      </trkpt>
      <trkpt lat="45.05063" lon="5.5139">
        <ele>1209</ele>
        <time>2021-06-29T11:47:16Z</time>
      </trkpt>
      <trkpt lat="45.05073" lon="5.51393">
        <ele>1209</ele>
        <time>2021-06-29T11:47:30Z</time>
      </trkpt>
      <trkpt lat="45.05086" lon="5.5139">
        <ele>1208</ele>
        <time>2021-06-29T11:47:47Z</time>
      </trkpt>
      <trkpt lat="45.05133" lon="5.51362">
        <ele>1206</ele>
        <time>2021-06-29T11:48:55Z</time>
      </trkpt>
      <trkpt lat="45.05152" lon="5.51348">
        <ele>1205</ele>
        <time>2021-06-29T11:49:24Z</time>
      </trkpt>
      <trkpt lat="45.05158" lon="5.51348">
        <ele>1204</ele>
        <time>2021-06-29T11:49:32Z</time>
      </trkpt>
      <trkpt lat="45.05163" lon="5.51351">
        <ele>1204</ele>
        <time>2021-06-29T11:49:39Z</time>
      </trkpt>
      <trkpt lat="45.05167" lon="5.51361">
        <ele>1204</ele>
        <time>2021-06-29T11:49:50Z</time>
      </trkpt>
      <trkpt lat="45.05166" lon="5.51375">
        <ele>1204</ele>
        <time>2021-06-29T11:50:03Z</time>
      </trkpt>
      <trkpt lat="45.05161" lon="5.51396">
        <ele>1204</ele>
        <time>2021-06-29T11:50:24Z</time>
      </trkpt>
      <trkpt lat="45.0516" lon="5.51414">
        <ele>1204</ele>
        <time>2021-06-29T11:50:41Z</time>
      </trkpt>
      <trkpt lat="45.05165" lon="5.51428">
        <ele>1203</ele>
        <time>2021-06-29T11:50:56Z</time>
      </trkpt>
      <trkpt lat="45.05175" lon="5.51436">
        <ele>1201</ele>
        <time>2021-06-29T11:51:11Z</time>
      </trkpt>
      <trkpt lat="45.05234" lon="5.5145">
        <ele>1192</ele>
        <time>2021-06-29T11:52:31Z</time>
      </trkpt>
      <trkpt lat="45.05261" lon="5.51451">
        <ele>1189</ele>
        <time>2021-06-29T11:53:07Z</time>
      </trkpt>
      <trkpt lat="45.05287" lon="5.51443">
        <ele>1188</ele>
        <time>2021-06-29T11:53:43Z</time>
      </trkpt>
      <trkpt lat="45.05297" lon="5.51447">
        <ele>1187</ele>
        <time>2021-06-29T11:53:57Z</time>
      </trkpt>
      <trkpt lat="45.05303" lon="5.51457">
        <ele>1186</ele>
        <time>2021-06-29T11:54:09Z</time>
      </trkpt>
      <trkpt lat="45.05308" lon="5.51486">
        <ele>1182</ele>
        <time>2021-06-29T11:54:37Z</time>
      </trkpt>
      <trkpt lat="45.05315" lon="5.51506">
        <ele>1180</ele>
        <time>2021-06-29T11:54:58Z</time>
      </trkpt>
      <trkpt lat="45.05333" lon="5.51532">
        <ele>1177</ele>
        <time>2021-06-29T11:55:32Z</time>
      </trkpt>
      <trkpt lat="45.05344" lon="5.51534">
        <ele>1176</ele>
        <time>2021-06-29T11:55:47Z</time>
      </trkpt>
      <trkpt lat="45.05357" lon="5.51529">
        <ele>1175</ele>
        <time>2021-06-29T11:56:05Z</time>
      </trkpt>
      <trkpt lat="45.05378" lon="5.51515">
        <ele>1174</ele>
        <time>2021-06-29T11:56:36Z</time>
      </trkpt>
      <trkpt lat="45.05387" lon="5.51507">
        <ele>1174</ele>
        <time>2021-06-29T11:56:50Z</time>
      </trkpt>
      <trkpt lat="45.05398" lon="5.51505">
        <ele>1173</ele>
        <time>2021-06-29T11:57:05Z</time>
      </trkpt>
      <trkpt lat="45.05422" lon="5.5152">
        <ele>1170</ele>
        <time>2021-06-29T11:57:40Z</time>
      </trkpt>
      <trkpt lat="45.05475" lon="5.51549">
        <ele>1164</ele>
        <time>2021-06-29T11:58:56Z</time>
      </trkpt>
      <trkpt lat="45.05505" lon="5.51573">
        <ele>1159</ele>
        <time>2021-06-29T11:59:42Z</time>
      </trkpt>
      <trkpt lat="45.05522" lon="5.51582">
        <ele>1155</ele>
        <time>2021-06-29T12:00:06Z</time>
      </trkpt>
      <trkpt lat="45.05534" lon="5.51583">
        <ele>1153</ele>
        <time>2021-06-29T12:00:22Z</time>
      </trkpt>
      <trkpt lat="45.05541" lon="5.51622">
        <ele>1155</ele>
        <time>2021-06-29T12:01:00Z</time>
      </trkpt>
      <trkpt lat="45.05536" lon="5.51597">
        <ele>1153</ele>
        <time>2021-06-29T12:01:25Z</time>
      </trkpt>
      <trkpt lat="45.05553" lon="5.51603">
        <ele>1150</ele>
        <time>2021-06-29T12:01:48Z</time>
      </trkpt>
      <trkpt lat="45.05567" lon="5.51602">
        <ele>1147</ele>
        <time>2021-06-29T12:02:07Z</time>
      </trkpt>
      <trkpt lat="45.05577" lon="5.51605">
        <ele>1145</ele>
        <time>2021-06-29T12:02:20Z</time>
      </trkpt>
      <trkpt lat="45.05591" lon="5.51604">
        <ele>1142</ele>
        <time>2021-06-29T12:02:39Z</time>
      </trkpt>
      <trkpt lat="45.05618" lon="5.51605">
        <ele>1137</ele>
        <time>2021-06-29T12:03:15Z</time>
      </trkpt>
      <trkpt lat="45.05642" lon="5.51612">
        <ele>1133</ele>
        <time>2021-06-29T12:03:48Z</time>
      </trkpt>
      <trkpt lat="45.05661" lon="5.51624">
        <ele>1129</ele>
        <time>2021-06-29T12:04:16Z</time>
      </trkpt>
      <trkpt lat="45.05687" lon="5.51624">
        <ele>1125</ele>
        <time>2021-06-29T12:04:50Z</time>
      </trkpt>
      <trkpt lat="45.05695" lon="5.51626">
        <ele>1123</ele>
        <time>2021-06-29T12:05:01Z</time>
      </trkpt>
      <trkpt lat="45.05719" lon="5.5163">
        <ele>1120</ele>
        <time>2021-06-29T12:05:33Z</time>
      </trkpt>
      <trkpt lat="45.05728" lon="5.51632">
        <ele>1118</ele>
        <time>2021-06-29T12:05:46Z</time>
      </trkpt>
      <trkpt lat="45.05747" lon="5.51634">
        <ele>1116</ele>
        <time>2021-06-29T12:06:11Z</time>
      </trkpt>
      <trkpt lat="45.05774" lon="5.51624">
        <ele>1114</ele>
        <time>2021-06-29T12:06:48Z</time>
      </trkpt>
      <trkpt lat="45.05834" lon="5.51631">
        <ele>1112</ele>
        <time>2021-06-29T12:08:09Z</time>
      </trkpt>
      <trkpt lat="45.05851" lon="5.51641">
        <ele>1111</ele>
        <time>2021-06-29T12:08:33Z</time>
      </trkpt>
      <trkpt lat="45.05896" lon="5.51689">
        <ele>1109</ele>
        <time>2021-06-29T12:09:48Z</time>
      </trkpt>
      <trkpt lat="45.05908" lon="5.51707">
        <ele>1108</ele>
        <time>2021-06-29T12:10:12Z</time>
      </trkpt>
      <trkpt lat="45.0592" lon="5.51736">
        <ele>1108</ele>
        <time>2021-06-29T12:10:43Z</time>
      </trkpt>
      <trkpt lat="45.05934" lon="5.51753">
        <ele>1108</ele>
        <time>2021-06-29T12:11:08Z</time>
      </trkpt>
      <trkpt lat="45.0594" lon="5.5176">
        <ele>1108</ele>
        <time>2021-06-29T12:11:18Z</time>
      </trkpt>
      <trkpt lat="45.05939" lon="5.51773">
        <ele>1109</ele>
        <time>2021-06-29T12:11:31Z</time>
      </trkpt>
      <trkpt lat="45.0594" lon="5.5176">
        <ele>1108</ele>
        <time>2021-06-29T12:11:43Z</time>
      </trkpt>
      <trkpt lat="45.05949" lon="5.51739">
        <ele>1107</ele>
        <time>2021-06-29T12:12:06Z</time>
      </trkpt>
      <trkpt lat="45.05952" lon="5.51724">
        <ele>1106</ele>
        <time>2021-06-29T12:12:21Z</time>
      </trkpt>
      <trkpt lat="45.05961" lon="5.51763">
        <ele>1108</ele>
        <time>2021-06-29T12:12:59Z</time>
      </trkpt>
      <trkpt lat="45.05972" lon="5.51795">
        <ele>1109</ele>
        <time>2021-06-29T12:13:33Z</time>
      </trkpt>
      <trkpt lat="45.05978" lon="5.51808">
        <ele>1109</ele>
        <time>2021-06-29T12:13:48Z</time>
      </trkpt>
      <trkpt lat="45.06002" lon="5.51839">
        <ele>1109</ele>
        <time>2021-06-29T12:14:31Z</time>
      </trkpt>
      <trkpt lat="45.06013" lon="5.51865">
        <ele>1108</ele>
        <time>2021-06-29T12:15:00Z</time>
      </trkpt>
      <trkpt lat="45.06022" lon="5.51892">
        <ele>1107</ele>
        <time>2021-06-29T12:15:28Z</time>
      </trkpt>
      <trkpt lat="45.06023" lon="5.51961">
        <ele>1109</ele>
        <time>2021-06-29T12:16:33Z</time>
      </trkpt>
      <trkpt lat="45.06027" lon="5.51981">
        <ele>1110</ele>
        <time>2021-06-29T12:16:52Z</time>
      </trkpt>
      <trkpt lat="45.06032" lon="5.51993">
        <ele>1109</ele>
        <time>2021-06-29T12:17:06Z</time>
      </trkpt>
      <trkpt lat="45.06064" lon="5.52032">
        <ele>1108</ele>
        <time>2021-06-29T12:18:02Z</time>
      </trkpt>
      <trkpt lat="45.0609" lon="5.52071">
        <ele>1108</ele>
        <time>2021-06-29T12:18:52Z</time>
      </trkpt>
      <trkpt lat="45.06154" lon="5.52178">
        <ele>1115</ele>
        <time>2021-06-29T12:21:05Z</time>
      </trkpt>
      <trkpt lat="45.06162" lon="5.52181">
        <ele>1114</ele>
        <time>2021-06-29T12:21:16Z</time>
      </trkpt>
      <trkpt lat="45.06048" lon="5.52363">
        <ele>1141</ele>
        <time>2021-06-29T12:25:05Z</time>
      </trkpt>
      <trkpt lat="45.06058" lon="5.52335">
        <ele>1139</ele>
        <time>2021-06-29T12:25:34Z</time>
      </trkpt>
    </trkseg>
  </trk>
</gpx>